Time;durP1;ratioP1;P1;durP2;ratioP2;P2;SDS_P1;SDS_P2;PMS_P1;PMS_P2;Temp;Humidity;BMP_temperature;BMP_pressure;BME280_temperature;BME280_humidity;BME280_pressure;Samples;Min_cycle;Max_cycle;Signal;HPM_P1;HPM_P2
2023/08/13 00:01:38;;;;;;;1.33;1.23;;;18.00;99.90;;;;;;5052821;28;20202;-72
2023/08/13 00:04:05;;;;;;;0.73;0.73;;;17.80;99.90;;;;;;5052811;28;20693;-73
2023/08/13 00:06:31;;;;;;;2.80;1.83;;;;;;;;;;5052896;28;20458;-73
2023/08/13 00:08:56;;;;;;;0.60;0.60;;;17.70;99.90;;;;;;5055973;28;20205;-72
2023/08/13 00:11:22;;;;;;;1.90;1.50;;;18.00;99.90;;;;;;5056613;28;20981;-73
2023/08/13 00:13:48;;;;;;;2.03;1.83;;;17.90;99.90;;;;;;5056871;28;20181;-73
2023/08/13 00:16:13;;;;;;;1.83;1.33;;;17.90;99.90;;;;;;5056532;28;20682;-73
2023/08/13 00:18:39;;;;;;;1.60;1.50;;;18.10;99.90;;;;;;5056843;28;20174;-73
2023/08/13 00:21:05;;;;;;;2.93;2.70;;;17.80;99.90;;;;;;5056360;28;20250;-72
2023/08/13 00:23:31;;;;;;;1.70;1.50;;;18.00;99.90;;;;;;5056673;28;20175;-72
2023/08/13 00:25:56;;;;;;;1.33;0.87;;;18.20;99.90;;;;;;5056581;28;20526;-73
2023/08/13 00:28:22;;;;;;;0.97;0.97;;;18.20;99.90;;;;;;5056502;28;20202;-72
2023/08/13 00:30:47;;;;;;;3.40;1.07;;;17.90;99.90;;;;;;5056649;28;20179;-73
2023/08/13 00:33:14;;;;;;;1.20;1.20;;;;;;;;;;5056329;28;20194;-73
2023/08/13 00:35:39;;;;;;;1.13;1.13;;;18.00;99.90;;;;;;5056533;28;20170;-72
2023/08/13 00:38:05;;;;;;;2.13;1.80;;;18.00;99.90;;;;;;5056315;28;20501;-73
2023/08/13 00:40:33;;;;;;;1.30;1.30;;;17.90;99.90;;;;;;5056409;28;20181;-72
2023/08/13 00:42:59;;;;;;;1.90;1.80;;;17.90;99.90;;;;;;5055890;28;20588;-72
2023/08/13 00:45:25;;;;;;;0.77;0.77;;;18.20;99.90;;;;;;5056042;28;20502;-72
2023/08/13 00:47:51;;;;;;;1.20;1.20;;;18.00;99.90;;;;;;5056247;28;20666;-72
2023/08/13 00:50:17;;;;;;;0.73;0.73;;;18.10;99.90;;;;;;5055991;28;20265;-72
2023/08/13 00:52:43;;;;;;;1.80;1.60;;;18.10;99.90;;;;;;5055782;28;20463;-72
2023/08/13 00:55:11;;;;;;;1.47;1.23;;;18.10;99.90;;;;;;5056047;28;20448;-72
2023/08/13 00:57:37;;;;;;;1.53;1.43;;;18.00;99.90;;;;;;5055888;28;20405;-73
2023/08/13 01:00:06;;;;;;;1.80;1.60;;;18.30;99.90;;;;;;5056257;28;20418;-73
2023/08/13 01:02:32;;;;;;;1.20;1.10;;;18.00;99.90;;;;;;5055595;28;20190;-73
2023/08/13 01:04:58;;;;;;;1.33;1.23;;;17.90;99.90;;;;;;5055697;28;20843;-73
2023/08/13 01:07:33;;;;;;;1.37;1.30;;;17.90;99.90;;;;;;5055818;28;20798;-73
2023/08/13 01:10:21;;;;;;;1.57;1.47;;;18.20;99.90;;;;;;5055652;28;20474;-73
2023/08/13 01:13:03;;;;;;;1.37;1.30;;;17.70;99.90;;;;;;5054064;28;21055;-73
2023/08/13 01:15:35;;;;;;;1.87;1.77;;;17.90;99.90;;;;;;5055625;28;20401;-72
2023/08/13 01:18:02;;;;;;;5.30;1.13;;;18.30;99.90;;;;;;5055615;28;20404;-73
2023/08/13 01:20:32;;;;;;;3.23;1.43;;;17.90;99.90;;;;;;5054144;28;20413;-72
2023/08/13 01:22:58;;;;;;;1.87;1.50;;;17.90;99.90;;;;;;5055215;28;20435;-72
2023/08/13 01:25:28;;;;;;;3.13;1.67;;;18.10;99.90;;;;;;5055418;28;20406;-73
2023/08/13 01:28:00;;;;;;;1.03;1.03;;;17.80;99.90;;;;;;5055322;28;20456;-72
2023/08/13 01:30:40;;;;;;;1.17;0.77;;;17.90;99.90;;;;;;5055446;28;20401;-72
2023/08/13 01:33:08;;;;;;;1.83;1.73;;;17.60;99.90;;;;;;5055136;28;20825;-73
2023/08/13 01:35:35;;;;;;;1.67;1.57;;;18.00;99.90;;;;;;5055239;28;20811;-72
2023/08/13 01:38:02;;;;;;;0.93;0.93;;;18.10;99.90;;;;;;5055172;28;20425;-73
2023/08/13 01:40:28;;;;;;;2.27;2.17;;;18.00;99.90;;;;;;5055174;28;20417;-72
2023/08/13 01:42:54;;;;;;;1.43;0.90;;;18.10;99.90;;;;;;5054793;28;20433;-73
2023/08/13 01:45:20;;;;;;;1.70;1.60;;;;;;;;;;5054952;28;20443;-73
2023/08/13 01:47:47;;;;;;;1.30;1.10;;;;;;;;;;5054934;28;20409;-73
2023/08/13 01:50:13;;;;;;;1.50;1.30;;;18.00;99.90;;;;;;5054694;28;20433;-72
2023/08/13 01:52:38;;;;;;;1.17;1.10;;;18.00;99.90;;;;;;5054646;28;20489;-72
2023/08/13 01:55:05;;;;;;;1.43;1.33;;;18.20;99.90;;;;;;5055026;28;20404;-72
2023/08/13 01:57:31;;;;;;;1.63;1.40;;;18.10;99.90;;;;;;5054792;28;20639;-73
2023/08/13 01:59:56;;;;;;;5.07;2.10;;;17.80;99.90;;;;;;5054682;28;20419;-73
2023/08/13 02:02:22;;;;;;;0.97;0.97;;;17.80;99.90;;;;;;5054438;28;20496;-71
2023/08/13 02:04:48;;;;;;;1.20;1.13;;;18.10;99.90;;;;;;5054648;28;20178;-73
2023/08/13 02:07:13;;;;;;;2.00;1.60;;;18.10;99.90;;;;;;5054622;28;20441;-72
2023/08/13 02:09:39;;;;;;;0.80;0.80;;;18.00;99.90;;;;;;5054681;28;20284;-72
2023/08/13 02:12:05;;;;;;;0.90;0.90;;;18.30;99.90;;;;;;5054193;28;20278;-73
2023/08/13 02:14:31;;;;;;;1.40;1.30;;;18.20;99.90;;;;;;5054443;28;20188;-73
2023/08/13 02:17:00;;;;;;;1.97;1.27;;;18.10;99.90;;;;;;5054301;28;20412;-72
2023/08/13 02:19:26;;;;;;;1.60;1.50;;;18.40;99.90;;;;;;5054341;28;20174;-73
2023/08/13 02:21:52;;;;;;;4.70;1.27;;;18.40;99.90;;;;;;5054108;28;20812;-73
2023/08/13 02:24:17;;;;;;;1.07;1.07;;;18.40;99.90;;;;;;5054317;28;20190;-73
2023/08/13 02:26:43;;;;;;;1.50;0.87;;;;;;;;;;5054269;28;20180;-73
2023/08/13 02:29:09;;;;;;;1.83;1.73;;;18.50;99.90;;;;;;5054045;28;20198;-73
2023/08/13 02:31:34;;;;;;;10.30;1.80;;;18.50;99.90;;;;;;5053743;28;20464;-73
2023/08/13 02:34:00;;;;;;;0.80;0.80;;;18.50;99.90;;;;;;5054289;28;20226;-72
2023/08/13 02:36:26;;;;;;;2.33;2.23;;;18.40;99.90;;;;;;5054183;28;20174;-73
2023/08/13 02:38:51;;;;;;;2.63;1.40;;;18.30;99.90;;;;;;5054215;28;20182;-73
2023/08/13 02:41:17;;;;;;;2.00;1.60;;;18.10;99.90;;;;;;5053799;28;20182;-72
2023/08/13 02:43:54;;;;;;;1.53;1.43;;;18.20;99.90;;;;;;5054012;28;20263;-72
2023/08/13 02:46:21;;;;;;;1.60;1.50;;;18.10;99.90;;;;;;5053795;28;20178;-73
2023/08/13 02:48:46;;;;;;;7.20;1.63;;;18.30;99.90;;;;;;5053813;28;20456;-73
2023/08/13 02:51:13;;;;;;;2.20;1.43;;;17.90;99.90;;;;;;5053725;28;20915;-73
2023/08/13 02:53:40;;;;;;;1.80;1.70;;;18.20;99.90;;;;;;5053729;28;20708;-73
2023/08/13 02:56:05;;;;;;;1.00;1.00;;;18.10;99.90;;;;;;5053581;28;20467;-72
2023/08/13 02:58:31;;;;;;;1.23;1.13;;;18.20;99.90;;;;;;5053760;28;20409;-72
2023/08/13 03:00:57;;;;;;;1.80;1.70;;;18.20;99.90;;;;;;5053410;28;20179;-73
2023/08/13 03:03:22;;;;;;;1.70;1.60;;;18.30;99.90;;;;;;5053484;28;20202;-72
2023/08/13 03:05:48;;;;;;;1.77;1.67;;;18.20;99.90;;;;;;5053580;28;20174;-72
2023/08/13 03:08:14;;;;;;;1.10;1.00;;;18.20;99.90;;;;;;5053382;28;20255;-72
2023/08/13 03:10:39;;;;;;;1.47;1.17;;;18.10;99.90;;;;;;5052157;28;20228;-73
2023/08/13 03:13:05;;;;;;;1.10;1.07;;;18.00;99.90;;;;;;5051404;28;20188;-73
2023/08/13 03:15:30;;;;;;;1.00;1.00;;;18.30;99.90;;;;;;5053469;28;20207;-72
2023/08/13 03:17:56;;;;;;;6.03;1.23;;;18.10;99.90;;;;;;5053311;28;20183;-72
2023/08/13 03:20:22;;;;;;;4.00;1.80;;;18.30;99.90;;;;;;5051340;28;20263;-72
2023/08/13 03:22:47;;;;;;;1.03;0.93;;;17.90;99.90;;;;;;5052985;28;20202;-73
2023/08/13 03:25:13;;;;;;;2.63;1.53;;;18.30;99.90;;;;;;5053240;28;20203;-72
2023/08/13 03:27:38;;;;;;;2.00;1.20;;;18.40;99.90;;;;;;5053200;28;20586;-72
2023/08/13 03:30:05;;;;;;;1.73;1.63;;;18.30;99.90;;;;;;5053216;28;20223;-72
2023/08/13 03:32:30;;;;;;;1.90;1.80;;;18.30;99.90;;;;;;5053127;28;20556;-72
2023/08/13 03:34:56;;;;;;;1.00;0.87;;;;;;;;;;5053138;28;20417;-72
2023/08/13 03:37:22;;;;;;;2.73;2.07;;;18.30;99.90;;;;;;5053046;28;20178;-73
2023/08/13 03:39:47;;;;;;;1.30;1.20;;;18.20;99.90;;;;;;5053101;28;20756;-72
2023/08/13 03:42:13;;;;;;;2.00;1.90;;;18.00;99.90;;;;;;5053195;28;20239;-73
2023/08/13 03:44:41;;;;;;;1.90;1.80;;;18.50;99.90;;;;;;5057094;28;20259;-73
2023/08/13 03:47:06;;;;;;;0.97;0.90;;;18.10;99.90;;;;;;5057295;28;20197;-72
2023/08/13 03:49:33;;;;;;;0.63;0.63;;;18.20;99.90;;;;;;5056986;28;20468;-72
2023/08/13 03:51:59;;;;;;;1.70;1.53;;;;;;;;;;5056956;28;20194;-73
2023/08/13 03:54:25;;;;;;;4.20;1.93;;;18.30;99.90;;;;;;5057037;28;20398;-73
2023/08/13 03:56:51;;;;;;;2.37;1.97;;;18.20;99.90;;;;;;5056939;28;20410;-73
2023/08/13 03:59:16;;;;;;;2.50;1.97;;;18.30;99.90;;;;;;5057312;28;20446;-72
2023/08/13 04:01:42;;;;;;;1.60;1.50;;;18.20;99.90;;;;;;5056697;28;20199;-72
2023/08/13 04:04:08;;;;;;;1.20;1.10;;;18.30;99.90;;;;;;5056964;28;20412;-72
2023/08/13 04:06:33;;;;;;;2.00;1.20;;;18.10;99.90;;;;;;5056505;28;20280;-72
2023/08/13 04:08:59;;;;;;;1.27;1.23;;;18.00;99.90;;;;;;5056671;28;20208;-72
2023/08/13 04:11:25;;;;;;;1.60;1.50;;;18.60;99.90;;;;;;5056626;28;20194;-72
2023/08/13 04:13:51;;;;;;;1.70;1.60;;;18.30;99.90;;;;;;5056695;28;20174;-72
2023/08/13 04:16:16;;;;;;;1.50;1.27;;;18.00;99.90;;;;;;5056813;28;20173;-72
2023/08/13 04:18:42;;;;;;;0.73;0.73;;;18.30;99.90;;;;;;5056813;28;20648;-73
2023/08/13 04:21:08;;;;;;;1.53;1.43;;;;;;;;;;5056333;28;20176;-73
2023/08/13 04:23:34;;;;;;;1.80;1.70;;;18.30;99.90;;;;;;5056547;28;20234;-73
2023/08/13 04:25:59;;;;;;;1.10;1.00;;;18.20;99.90;;;;;;5056427;28;20810;-73
2023/08/13 04:28:25;;;;;;;1.40;1.30;;;18.40;99.90;;;;;;5056454;28;20224;-72
2023/08/13 04:30:51;;;;;;;1.40;1.33;;;18.40;99.90;;;;;;5056341;28;20168;-73
2023/08/13 04:33:16;;;;;;;0.73;0.73;;;18.00;99.90;;;;;;5056298;28;20274;-73
2023/08/13 04:35:42;;;;;;;0.90;0.90;;;;;;;;;;5056536;28;20176;-72
2023/08/13 04:38:08;;;;;;;1.77;1.67;;;18.60;99.90;;;;;;5056230;28;20170;-73
2023/08/13 04:40:34;;;;;;;2.70;1.90;;;18.50;99.90;;;;;;5056058;28;20415;-73
2023/08/13 04:43:00;;;;;;;6.80;2.37;;;18.40;99.90;;;;;;5055957;28;20199;-73
2023/08/13 04:45:26;;;;;;;5.03;2.83;;;18.50;99.90;;;;;;5056194;28;20472;-73
2023/08/13 04:47:52;;;;;;;1.30;1.30;;;;;;;;;;5056122;28;20179;-72
2023/08/13 04:50:18;;;;;;;2.07;1.80;;;18.70;99.90;;;;;;5055871;28;20791;-72
2023/08/13 04:52:43;;;;;;;2.30;2.20;;;18.50;99.90;;;;;;5055769;28;20432;-73
2023/08/13 04:55:09;;;;;;;1.10;1.00;;;18.30;99.90;;;;;;5055660;28;20224;-72
2023/08/13 04:57:35;;;;;;;1.27;1.17;;;18.50;99.90;;;;;;5056048;28;20179;-73
2023/08/13 05:00:01;;;;;;;3.40;2.43;;;18.50;99.90;;;;;;5055981;28;20187;-73
2023/08/13 05:02:27;;;;;;;1.53;1.47;;;18.40;99.90;;;;;;5055604;28;20221;-73
2023/08/13 05:04:53;;;;;;;1.73;1.20;;;18.40;99.90;;;;;;5055778;28;20415;-73
2023/08/13 05:07:19;;;;;;;1.03;1.03;;;18.70;99.90;;;;;;5055668;28;20408;-72
2023/08/13 05:09:45;;;;;;;1.50;1.40;;;18.50;99.90;;;;;;5054556;28;20466;-73
2023/08/13 05:12:11;;;;;;;3.60;2.90;;;;;;;;;;5055461;28;20282;-73
2023/08/13 05:14:36;;;;;;;1.27;1.17;;;18.60;99.90;;;;;;5055657;28;20178;-71
2023/08/13 05:17:15;;;;;;;1.27;1.17;;;18.70;99.90;;;;;;5055528;28;20403;-72
2023/08/13 05:19:41;;;;;;;1.43;1.43;;;18.70;99.90;;;;;;5055556;28;20179;-73
2023/08/13 05:22:06;;;;;;;1.53;1.27;;;18.80;99.90;;;;;;5055347;28;20533;-73
2023/08/13 05:24:32;;;;;;;2.30;2.10;;;18.90;99.90;;;;;;5055480;28;20178;-73
2023/08/13 05:26:57;;;;;;;1.70;1.43;;;18.60;99.90;;;;;;5055508;28;20188;-73
2023/08/13 05:29:23;;;;;;;3.87;3.67;;;19.00;99.90;;;;;;5055405;28;20202;-72
2023/08/13 05:31:48;;;;;;;0.90;0.90;;;19.50;99.90;;;;;;5055079;28;20735;-73
2023/08/13 05:34:14;;;;;;;1.13;1.07;;;19.20;99.90;;;;;;5055467;28;20634;-72
2023/08/13 05:36:40;;;;;;;1.27;1.17;;;19.50;99.90;;;;;;5055162;28;20178;-73
2023/08/13 05:39:07;;;;;;;1.60;1.50;;;;;;;;;;5055225;28;20233;-73
2023/08/13 05:41:33;;;;;;;2.00;1.90;;;20.20;99.90;;;;;;5054812;28;20193;-72
2023/08/13 05:43:59;;;;;;;2.00;1.80;;;20.20;99.90;;;;;;5054999;28;20526;-72
2023/08/13 05:46:25;;;;;;;1.80;1.70;;;20.40;99.90;;;;;;5055152;28;20175;-72
2023/08/13 05:48:51;;;;;;;2.00;1.03;;;20.60;99.90;;;;;;5054868;28;20548;-73
2023/08/13 05:51:16;;;;;;;2.07;1.57;;;21.30;99.90;;;;;;5054712;28;20225;-73
2023/08/13 05:53:42;;;;;;;1.23;1.13;;;21.40;99.90;;;;;;5054937;28;20174;-73
2023/08/13 05:56:07;;;;;;;1.13;1.03;;;22.00;99.90;;;;;;5055053;28;20176;-73
2023/08/13 05:58:34;;;;;;;1.50;0.90;;;;;;;;;;5055020;28;20177;-73
2023/08/13 06:01:00;;;;;;;2.00;0.83;;;22.50;99.90;;;;;;5054689;28;20562;-73
2023/08/13 06:03:25;;;;;;;1.10;0.83;;;22.60;99.90;;;;;;5054789;28;20432;-73
2023/08/13 06:05:51;;;;;;;2.30;1.20;;;;;;;;;;5053882;28;20408;-72
2023/08/13 06:08:18;;;;;;;1.00;1.00;;;22.90;99.90;;;;;;5054448;28;20204;-73
2023/08/13 06:10:44;;;;;;;1.53;1.43;;;;;;;;;;5051118;28;20469;-73
2023/08/13 06:13:10;;;;;;;3.93;1.27;;;;;;;;;;5054409;28;20425;-73
2023/08/13 06:15:35;;;;;;;0.67;0.67;;;23.40;99.90;;;;;;5054937;28;20742;-73
2023/08/13 06:18:01;;;;;;;0.90;0.90;;;23.70;99.90;;;;;;5054880;28;20405;-72
2023/08/13 06:20:27;;;;;;;1.43;1.37;;;24.00;99.90;;;;;;5054676;28;20202;-73
2023/08/13 06:22:52;;;;;;;1.70;1.60;;;24.30;99.90;;;;;;5054176;28;20190;-73
2023/08/13 06:25:18;;;;;;;1.43;1.00;;;24.50;99.90;;;;;;5054594;28;20196;-74
2023/08/13 06:27:44;;;;;;;1.27;1.17;;;24.50;99.70;;;;;;5052710;28;20505;-73
2023/08/13 06:30:09;;;;;;;1.70;1.60;;;24.40;99.30;;;;;;5052537;28;20638;-73
2023/08/13 06:32:35;;;;;;;0.97;0.80;;;24.20;99.90;;;;;;5051131;28;20235;-74
2023/08/13 06:35:01;;;;;;;1.07;0.90;;;;;;;;;;5053309;28;20170;-73
2023/08/13 06:37:27;;;;;;;0.87;0.87;;;24.60;98.80;;;;;;5053035;28;20172;-72
2023/08/13 06:39:53;;;;;;;1.23;1.17;;;24.70;99.30;;;;;;5050148;28;20420;-72
2023/08/13 06:42:18;;;;;;;2.30;1.30;;;24.80;99.20;;;;;;5053663;28;20594;-72
2023/08/13 06:44:44;;;;;;;0.90;0.90;;;24.40;99.90;;;;;;5053375;28;20741;-71
2023/08/13 06:47:09;;;;;;;0.70;0.70;;;24.50;98.60;;;;;;5052532;28;20205;-72
2023/08/13 06:49:35;;;;;;;0.83;0.83;;;;;;;;;;5054003;28;20294;-73
2023/08/13 06:52:01;;;;;;;0.90;0.90;;;23.80;99.90;;;;;;5052726;28;20214;-73
2023/08/13 06:54:27;;;;;;;1.03;1.03;;;23.60;99.10;;;;;;5052795;28;20883;-73
2023/08/13 06:56:52;;;;;;;2.10;1.77;;;23.40;99.90;;;;;;5054252;28;20167;-72
2023/08/13 06:59:18;;;;;;;2.10;1.03;;;23.40;99.90;;;;;;5054294;28;20200;-72
2023/08/13 07:01:44;;;;;;;1.00;0.90;;;23.50;99.90;;;;;;5053580;28;20535;-72
2023/08/13 07:04:09;;;;;;;2.40;1.83;;;23.70;99.90;;;;;;5050768;28;20172;-72
2023/08/13 07:06:35;;;;;;;3.20;1.33;;;24.20;99.90;;;;;;5052999;28;20178;-72
2023/08/13 07:09:03;;;;;;;0.73;0.73;;;24.60;99.90;;;;;;5052790;28;20429;-72
2023/08/13 07:11:32;;;;;;;1.50;0.90;;;25.00;99.90;;;;;;5052648;28;20188;-72
2023/08/13 07:13:58;;;;;;;0.77;0.77;;;25.20;99.30;;;;;;5052822;28;20407;-72
2023/08/13 07:16:24;;;;;;;0.73;0.73;;;25.30;99.30;;;;;;5052840;28;20394;-72
2023/08/13 07:18:49;;;;;;;0.83;0.80;;;25.40;99.10;;;;;;5053240;28;20411;-72
2023/08/13 07:21:15;;;;;;;1.47;1.37;;;26.00;99.90;;;;;;5053236;28;20589;-72
2023/08/13 07:23:42;;;;;;;1.40;1.30;;;;;;;;;;5053534;28;20174;-72
2023/08/13 07:26:08;;;;;;;1.17;1.07;;;26.10;97.60;;;;;;5053287;28;20235;-72
2023/08/13 07:28:39;;;;;;;0.90;0.80;;;;;;;;;;5053360;28;20456;-73
2023/08/13 07:31:06;;;;;;;2.90;1.60;;;26.60;99.90;;;;;;5052985;28;20167;-73
2023/08/13 07:33:32;;;;;;;0.60;0.60;;;26.90;96.60;;;;;;5053163;28;20443;-72
2023/08/13 07:36:03;;;;;;;0.90;0.90;;;27.20;95.60;;;;;;5053257;28;20961;-73
2023/08/13 07:38:29;;;;;;;1.80;0.97;;;27.20;95.60;;;;;;5053235;28;20444;-72
2023/08/13 07:41:00;;;;;;;0.80;0.80;;;27.50;96.00;;;;;;5052974;28;20486;-73
2023/08/13 07:43:26;;;;;;;1.27;1.27;;;28.10;95.30;;;;;;5053307;28;20193;-72
2023/08/13 07:45:51;;;;;;;1.43;1.33;;;28.90;93.70;;;;;;5052949;28;20409;-73
2023/08/13 07:48:17;;;;;;;0.93;0.77;;;30.20;99.90;;;;;;5050681;28;20205;-73
2023/08/13 07:50:43;;;;;;;1.90;0.93;;;30.30;91.00;;;;;;5053234;28;20189;-73
2023/08/13 07:53:09;;;;;;;1.23;0.90;;;31.40;88.90;;;;;;5053575;28;20197;-73
2023/08/13 07:55:35;;;;;;;1.30;1.20;;;32.80;86.10;;;;;;5053026;28;20419;-73
2023/08/13 07:58:02;;;;;;;3.23;1.53;;;;;;;;;;5050143;28;20595;-71
2023/08/13 08:00:27;;;;;;;1.10;0.90;;;35.00;72.10;;;;;;5052045;28;20190;-72
2023/08/13 08:02:53;;;;;;;1.00;0.87;;;35.90;69.80;;;;;;5052740;28;20463;-71
2023/08/13 08:05:20;;;;;;;2.67;1.10;;;36.20;63.40;;;;;;5053027;28;20170;-71
2023/08/13 08:07:45;;;;;;;1.90;1.40;;;36.20;63.10;;;;;;5053059;28;20178;-72
2023/08/13 08:10:11;;;;;;;1.50;1.40;;;36.40;63.90;;;;;;5052908;28;20556;-72
2023/08/13 08:12:37;;;;;;;0.50;0.50;;;36.90;62.30;;;;;;5052694;28;20197;-72
2023/08/13 08:15:04;;;;;;;1.10;1.00;;;37.10;60.20;;;;;;5053057;28;20536;-72
2023/08/13 08:17:30;;;;;;;1.93;0.93;;;37.00;58.90;;;;;;5053045;28;20401;-71
2023/08/13 08:19:56;;;;;;;1.30;1.20;;;37.30;58.50;;;;;;5052956;28;20404;-71
2023/08/13 08:22:22;;;;;;;3.87;1.93;;;37.10;57.60;;;;;;5052532;28;20439;-72
2023/08/13 08:24:48;;;;;;;1.13;1.10;;;36.60;56.90;;;;;;5052700;28;20170;-72
2023/08/13 08:27:13;;;;;;;1.00;1.00;;;35.80;58.10;;;;;;5052720;28;20170;-71
2023/08/13 08:29:39;;;;;;;1.20;1.10;;;35.40;59.40;;;;;;5055204;28;20212;-71
2023/08/13 08:32:04;;;;;;;1.43;1.33;;;34.70;58.80;;;;;;5055023;28;20208;-71
2023/08/13 08:34:30;;;;;;;1.87;1.53;;;34.20;60.30;;;;;;5056173;28;20176;-72
2023/08/13 08:36:56;;;;;;;1.63;1.40;;;33.90;60.40;;;;;;5056474;28;20177;-71
2023/08/13 08:39:22;;;;;;;1.70;1.60;;;;;;;;;;5056928;28;20189;-71
2023/08/13 08:41:48;;;;;;;1.23;1.13;;;;;;;;;;5056124;28;20436;-71
2023/08/13 08:44:20;;;;;;;1.10;1.07;;;33.80;61.60;;;;;;5056167;28;20411;-71
2023/08/13 08:46:49;;;;;;;1.03;0.93;;;35.50;58.20;;;;;;5056420;28;20435;-71
2023/08/13 08:49:16;;;;;;;1.37;1.27;;;35.60;58.80;;;;;;5055900;28;20452;-72
2023/08/13 08:51:42;;;;;;;1.20;0.97;;;36.60;55.80;;;;;;5055834;28;20443;-72
2023/08/13 08:54:08;;;;;;;0.87;0.80;;;36.30;55.90;;;;;;5055935;28;20999;-71
2023/08/13 08:56:34;;;;;;;2.57;1.70;;;35.70;58.30;;;;;;5056011;28;20292;-72
2023/08/13 08:58:59;;;;;;;1.30;1.23;;;35.40;56.80;;;;;;5055939;28;20404;-72
2023/08/13 09:01:25;;;;;;;1.97;1.87;;;35.40;56.20;;;;;;5055634;28;20370;-72
2023/08/13 09:03:51;;;;;;;1.10;1.00;;;35.90;57.10;;;;;;5055926;28;20174;-72
2023/08/13 09:06:17;;;;;;;1.83;1.33;;;36.90;54.60;;;;;;5056131;28;20701;-71
2023/08/13 09:08:42;;;;;;;2.73;1.77;;;37.40;54.40;;;;;;5055789;28;20472;-72
2023/08/13 09:11:09;;;;;;;1.27;1.20;;;38.30;65.30;;;;;;5055444;28;20166;-71
2023/08/13 09:13:35;;;;;;;1.73;1.63;;;38.20;51.30;;;;;;5055681;28;20163;-71
2023/08/13 09:16:00;;;;;;;1.73;1.40;;;38.00;51.70;;;;;;5055752;28;20405;-72
2023/08/13 09:18:26;;;;;;;1.27;1.20;;;37.90;51.20;;;;;;5055702;28;20333;-72
2023/08/13 09:20:51;;;;;;;1.40;1.30;;;37.70;51.20;;;;;;5055491;28;20174;-72
2023/08/13 09:23:24;;;;;;;1.67;1.40;;;37.20;49.70;;;;;;5055304;28;20190;-71
2023/08/13 09:25:54;;;;;;;1.20;1.10;;;37.40;51.10;;;;;;5055409;28;20228;-72
2023/08/13 09:28:20;;;;;;;1.60;1.30;;;37.30;50.10;;;;;;5055326;28;20445;-71
2023/08/13 09:30:46;;;;;;;3.30;1.30;;;36.90;51.90;;;;;;5055088;28;20408;-72
2023/08/13 09:33:15;;;;;;;1.27;1.17;;;35.90;51.40;;;;;;5055145;28;20217;-71
2023/08/13 09:35:44;;;;;;;1.30;1.20;;;35.20;54.50;;;;;;5055108;28;20826;-71
2023/08/13 09:38:10;;;;;;;1.83;1.57;;;34.30;55.00;;;;;;5055136;28;20498;-71
2023/08/13 09:40:37;;;;;;;2.73;1.47;;;33.80;56.00;;;;;;5053816;28;20439;-71
2023/08/13 09:43:09;;;;;;;1.53;1.43;;;33.30;58.10;;;;;;5054840;28;20424;-71
2023/08/13 09:45:35;;;;;;;1.67;1.57;;;32.70;58.50;;;;;;5055154;28;20404;-71
2023/08/13 09:48:06;;;;;;;5.00;1.80;;;31.80;59.40;;;;;;5055102;28;20487;-71
2023/08/13 09:50:40;;;;;;;2.03;1.93;;;31.70;62.20;;;;;;5054816;28;20562;-71
2023/08/13 09:53:12;;;;;;;2.43;1.93;;;31.60;62.60;;;;;;5054852;28;20516;-71
2023/08/13 09:55:54;;;;;;;1.50;1.40;;;31.30;63.00;;;;;;5054751;28;20415;-71
2023/08/13 09:58:20;;;;;;;1.20;1.20;;;31.70;64.30;;;;;;5055024;28;20413;-71
2023/08/13 10:00:47;;;;;;;2.10;1.00;;;32.20;61.40;;;;;;5054658;28;20486;-71
2023/08/13 10:03:16;;;;;;;1.17;1.10;;;32.40;61.50;;;;;;5054641;28;20431;-71
2023/08/13 10:05:43;;;;;;;1.43;1.33;;;33.20;58.80;;;;;;5054355;28;20474;-71
2023/08/13 10:08:08;;;;;;;5.13;1.50;;;33.10;59.30;;;;;;5054591;28;20773;-71
2023/08/13 10:10:36;;;;;;;1.50;1.40;;;33.50;57.90;;;;;;5054581;28;20409;-71
2023/08/13 10:13:02;;;;;;;1.20;1.10;;;;;;;;;;5054491;28;20217;-71
2023/08/13 10:15:29;;;;;;;1.83;1.20;;;33.10;57.90;;;;;;5054371;28;20424;-71
2023/08/13 10:17:56;;;;;;;1.03;1.03;;;32.80;58.40;;;;;;5054443;28;20496;-71
2023/08/13 10:20:25;;;;;;;2.40;2.20;;;32.20;59.10;;;;;;5053883;28;20412;-71
2023/08/13 10:22:52;;;;;;;1.83;1.57;;;31.70;60.00;;;;;;5054002;28;20459;-72
2023/08/13 10:25:29;;;;;;;1.90;1.27;;;31.50;63.40;;;;;;5054315;28;20411;-71
2023/08/13 10:27:56;;;;;;;1.40;1.30;;;31.70;62.70;;;;;;5054141;28;20412;-71
2023/08/13 10:30:22;;;;;;;1.87;1.23;;;31.40;62.40;;;;;;5054116;28;20413;-71
2023/08/13 10:32:59;;;;;;;1.67;1.57;;;30.90;64.20;;;;;;5053473;28;20424;-71
2023/08/13 10:35:28;;;;;;;2.13;1.50;;;30.70;65.40;;;;;;5054240;28;20462;-71
2023/08/13 10:38:00;;;;;;;1.77;1.33;;;30.40;65.90;;;;;;5054067;28;20441;-70
2023/08/13 10:40:26;;;;;;;1.47;1.37;;;29.80;67.30;;;;;;5054099;28;20400;-71
2023/08/13 10:42:54;;;;;;;1.73;1.60;;;29.60;68.10;;;;;;5053717;28;20425;-71
2023/08/13 10:45:32;;;;;;;1.40;1.30;;;29.40;69.50;;;;;;5053927;28;20412;-71
2023/08/13 10:48:05;;;;;;;1.40;0.97;;;29.60;71.90;;;;;;5054053;28;20416;-71
2023/08/13 10:50:41;;;;;;;1.77;1.67;;;30.20;72.00;;;;;;5053750;28;20420;-71
2023/08/13 10:53:26;;;;;;;1.63;1.27;;;30.10;68.50;;;;;;5053391;28;20817;-71
2023/08/13 10:55:59;;;;;;;1.00;0.90;;;30.40;68.00;;;;;;5053984;28;20789;-71
2023/08/13 10:58:47;;;;;;;1.63;1.53;;;30.70;66.30;;;;;;5053949;28;20409;-70
2023/08/13 11:01:21;;;;;;;2.33;2.13;;;30.90;91.40;;;;;;5053511;28;20471;-71
2023/08/13 11:03:54;;;;;;;1.77;1.67;;;30.70;66.70;;;;;;5053652;28;20853;-71
2023/08/13 11:06:22;;;;;;;2.57;1.40;;;30.70;66.90;;;;;;5053462;28;20761;-71
2023/08/13 11:08:48;;;;;;;1.53;1.43;;;30.50;67.40;;;;;;5053596;28;20527;-71
2023/08/13 11:11:20;;;;;;;2.07;1.87;;;29.90;93.50;;;;;;5053274;28;20408;-71
2023/08/13 11:13:47;;;;;;;1.50;1.40;;;29.90;67.90;;;;;;5053507;28;20412;-71
2023/08/13 11:16:13;;;;;;;2.60;1.60;;;29.50;68.40;;;;;;5053644;28;20405;-71
2023/08/13 11:18:39;;;;;;;3.60;2.10;;;29.50;70.00;;;;;;5053585;28;20824;-71
2023/08/13 11:21:05;;;;;;;1.63;1.53;;;29.80;94.20;;;;;;5053145;28;20535;-71
2023/08/13 11:23:32;;;;;;;1.47;1.37;;;29.60;71.30;;;;;;5053313;28;20550;-71
2023/08/13 11:25:57;;;;;;;1.03;1.03;;;29.70;95.50;;;;;;5053423;28;20404;-71
2023/08/13 11:28:25;;;;;;;1.37;1.23;;;29.80;74.20;;;;;;5053372;28;20498;-71
2023/08/13 11:30:52;;;;;;;3.20;1.83;;;29.90;74.30;;;;;;5053363;28;20189;-71
2023/08/13 11:33:19;;;;;;;1.27;1.20;;;30.10;70.80;;;;;;5053082;28;20559;-71
2023/08/13 11:35:48;;;;;;;1.40;1.20;;;30.30;72.20;;;;;;5053150;28;20405;-71
2023/08/13 11:38:14;;;;;;;1.17;1.07;;;30.40;73.10;;;;;;5053341;28;20403;-71
2023/08/13 11:40:40;;;;;;;2.70;1.80;;;30.70;69.40;;;;;;5053030;28;20491;-71
2023/08/13 11:43:10;;;;;;;1.17;1.17;;;30.80;67.60;;;;;;5053074;28;20870;-71
2023/08/13 11:45:36;;;;;;;1.73;1.63;;;30.80;65.50;;;;;;5053158;28;20401;-71
2023/08/13 11:48:11;;;;;;;1.60;1.50;;;30.50;67.30;;;;;;5052810;28;20411;-71
2023/08/13 11:50:38;;;;;;;1.73;1.63;;;30.30;64.10;;;;;;5052989;28;20486;-71
2023/08/13 11:53:04;;;;;;;1.27;1.17;;;30.40;64.90;;;;;;5053135;28;20832;-72
2023/08/13 11:55:31;;;;;;;2.50;1.40;;;30.50;64.40;;;;;;5050733;28;20762;-71
2023/08/13 11:57:57;;;;;;;1.43;1.33;;;30.60;65.00;;;;;;5052821;28;20458;-71
2023/08/13 12:00:25;;;;;;;1.80;1.70;;;30.50;66.70;;;;;;5051572;28;20408;-71
2023/08/13 12:02:57;;;;;;;1.70;1.60;;;30.10;92.30;;;;;;5049049;28;20817;-71
2023/08/13 12:05:31;;;;;;;2.20;1.50;;;30.50;67.80;;;;;;5054918;28;20466;-71
2023/08/13 12:08:01;;;;;;;1.50;1.40;;;30.60;67.30;;;;;;5054690;28;20964;-71
2023/08/13 12:10:27;;;;;;;1.63;1.10;;;30.60;66.30;;;;;;5054753;28;20432;-71
2023/08/13 12:12:53;;;;;;;3.93;1.37;;;30.30;69.10;;;;;;5054655;28;20482;-71
2023/08/13 12:15:25;;;;;;;1.10;1.10;;;30.20;68.60;;;;;;5056197;28;20631;-71
2023/08/13 12:17:52;;;;;;;1.47;1.37;;;30.20;69.40;;;;;;5056166;28;20960;-71
2023/08/13 12:20:17;;;;;;;1.37;1.27;;;30.10;67.40;;;;;;5056525;28;20412;-71
2023/08/13 12:22:43;;;;;;;3.13;2.30;;;30.10;72.50;;;;;;5056408;28;20439;-71
2023/08/13 12:25:08;;;;;;;1.90;1.80;;;29.70;68.40;;;;;;5056511;28;20194;-70
2023/08/13 12:27:34;;;;;;;1.67;1.53;;;29.40;69.00;;;;;;5056265;28;20641;-71
2023/08/13 12:30:00;;;;;;;1.60;1.20;;;29.40;72.10;;;;;;5056580;28;20552;-71
2023/08/13 12:32:26;;;;;;;1.07;1.07;;;29.30;72.10;;;;;;5056162;28;20428;-71
2023/08/13 12:34:52;;;;;;;2.23;2.00;;;29.10;70.60;;;;;;5056401;28;20166;-71
2023/08/13 12:37:17;;;;;;;2.40;2.20;;;28.80;71.20;;;;;;5056315;28;20169;-71
2023/08/13 12:39:43;;;;;;;2.30;1.63;;;28.80;72.80;;;;;;5056528;28;20535;-71
2023/08/13 12:42:12;;;;;;;1.50;1.40;;;28.80;71.40;;;;;;5056090;28;20190;-71
2023/08/13 12:44:37;;;;;;;1.03;0.80;;;28.70;72.80;;;;;;5056132;28;20174;-71
2023/08/13 12:47:03;;;;;;;7.33;1.47;;;28.60;71.20;;;;;;5056562;28;20755;-71
2023/08/13 12:49:28;;;;;;;3.07;2.10;;;28.70;71.80;;;;;;5055833;28;20202;-71
2023/08/13 12:51:54;;;;;;;2.60;1.57;;;28.80;73.90;;;;;;5055791;28;20194;-70
2023/08/13 12:54:20;;;;;;;1.93;1.30;;;28.90;74.30;;;;;;5056230;28;20167;-70